sensor_id;sensor_type;location;lat;lon;timestamp;P1;durP1;ratioP1;P2;durP2;ratioP2
11835;SDS011;5977;51.972;7.640;2023-07-29T00:02:00;160.27;;;53.10;;
11835;SDS011;5977;51.972;7.640;2023-07-29T00:04:28;160.07;;;52.97;;
11835;SDS011;5977;51.972;7.640;2023-07-29T00:06:56;159.60;;;52.57;;
11835;SDS011;5977;51.972;7.640;2023-07-29T00:09:25;159.30;;;52.57;;
11835;SDS011;5977;51.972;7.640;2023-07-29T00:11:53;159.70;;;52.43;;
11835;SDS011;5977;51.972;7.640;2023-07-29T00:14:21;159.83;;;52.80;;
11835;SDS011;5977;51.972;7.640;2023-07-29T00:16:49;159.63;;;52.87;;
11835;SDS011;5977;51.972;7.640;2023-07-29T00:19:17;159.57;;;52.53;;
11835;SDS011;5977;51.972;7.640;2023-07-29T00:21:46;160.20;;;52.70;;
11835;SDS011;5977;51.972;7.640;2023-07-29T00:24:14;159.63;;;52.60;;
11835;SDS011;5977;51.972;7.640;2023-07-29T00:26:43;159.83;;;52.43;;
11835;SDS011;5977;51.972;7.640;2023-07-29T00:29:11;160.20;;;52.53;;
11835;SDS011;5977;51.972;7.640;2023-07-29T00:31:39;159.67;;;52.27;;
11835;SDS011;5977;51.972;7.640;2023-07-29T00:34:07;159.30;;;52.33;;
11835;SDS011;5977;51.972;7.640;2023-07-29T00:36:35;159.90;;;52.67;;
11835;SDS011;5977;51.972;7.640;2023-07-29T00:39:04;159.27;;;52.33;;
11835;SDS011;5977;51.972;7.640;2023-07-29T00:41:31;159.03;;;52.27;;
11835;SDS011;5977;51.972;7.640;2023-07-29T00:44:01;159.73;;;52.43;;
11835;SDS011;5977;51.972;7.640;2023-07-29T00:46:29;160.30;;;52.90;;
11835;SDS011;5977;51.972;7.640;2023-07-29T00:48:57;160.07;;;52.70;;
11835;SDS011;5977;51.972;7.640;2023-07-29T00:51:25;159.93;;;52.50;;
11835;SDS011;5977;51.972;7.640;2023-07-29T00:53:55;159.17;;;52.17;;
11835;SDS011;5977;51.972;7.640;2023-07-29T00:56:23;160.03;;;52.67;;
11835;SDS011;5977;51.972;7.640;2023-07-29T00:58:51;159.90;;;52.50;;
11835;SDS011;5977;51.972;7.640;2023-07-29T01:01:26;159.13;;;52.33;;
11835;SDS011;5977;51.972;7.640;2023-07-29T01:03:54;159.63;;;52.70;;
11835;SDS011;5977;51.972;7.640;2023-07-29T01:06:23;159.90;;;52.63;;
11835;SDS011;5977;51.972;7.640;2023-07-29T01:08:59;159.23;;;52.30;;
11835;SDS011;5977;51.972;7.640;2023-07-29T01:11:33;159.87;;;52.67;;
11835;SDS011;5977;51.972;7.640;2023-07-29T01:14:16;159.43;;;52.17;;
11835;SDS011;5977;51.972;7.640;2023-07-29T01:16:52;159.67;;;52.33;;
11835;SDS011;5977;51.972;7.640;2023-07-29T01:19:26;159.60;;;52.37;;
11835;SDS011;5977;51.972;7.640;2023-07-29T01:22:10;160.03;;;52.60;;
11835;SDS011;5977;51.972;7.640;2023-07-29T01:24:42;159.83;;;52.63;;
11835;SDS011;5977;51.972;7.640;2023-07-29T01:27:09;159.73;;;52.33;;
11835;SDS011;5977;51.972;7.640;2023-07-29T01:29:39;159.47;;;52.23;;
11835;SDS011;5977;51.972;7.640;2023-07-29T01:32:08;160.10;;;52.67;;
11835;SDS011;5977;51.972;7.640;2023-07-29T01:34:43;159.10;;;51.70;;
11835;SDS011;5977;51.972;7.640;2023-07-29T01:37:15;159.63;;;52.30;;
11835;SDS011;5977;51.972;7.640;2023-07-29T01:39:48;159.50;;;52.13;;
11835;SDS011;5977;51.972;7.640;2023-07-29T01:42:17;159.53;;;52.40;;
11835;SDS011;5977;51.972;7.640;2023-07-29T01:44:45;159.47;;;52.13;;
11835;SDS011;5977;51.972;7.640;2023-07-29T01:47:13;159.43;;;51.77;;
11835;SDS011;5977;51.972;7.640;2023-07-29T01:49:42;159.37;;;52.10;;
11835;SDS011;5977;51.972;7.640;2023-07-29T01:52:10;159.03;;;51.80;;
11835;SDS011;5977;51.972;7.640;2023-07-29T01:54:38;158.60;;;51.80;;
11835;SDS011;5977;51.972;7.640;2023-07-29T01:57:07;159.03;;;51.47;;
11835;SDS011;5977;51.972;7.640;2023-07-29T01:59:35;159.43;;;52.20;;
11835;SDS011;5977;51.972;7.640;2023-07-29T02:02:03;160.17;;;52.60;;
11835;SDS011;5977;51.972;7.640;2023-07-29T02:04:31;160.13;;;52.83;;
11835;SDS011;5977;51.972;7.640;2023-07-29T02:06:59;159.27;;;52.17;;
11835;SDS011;5977;51.972;7.640;2023-07-29T02:09:27;160.37;;;52.77;;
11835;SDS011;5977;51.972;7.640;2023-07-29T02:11:55;159.60;;;52.40;;
11835;SDS011;5977;51.972;7.640;2023-07-29T02:14:25;159.10;;;52.27;;
11835;SDS011;5977;51.972;7.640;2023-07-29T02:16:52;159.87;;;52.60;;
11835;SDS011;5977;51.972;7.640;2023-07-29T02:19:20;159.43;;;52.53;;
11835;SDS011;5977;51.972;7.640;2023-07-29T02:21:49;158.53;;;51.80;;
11835;SDS011;5977;51.972;7.640;2023-07-29T02:24:17;159.33;;;52.20;;
11835;SDS011;5977;51.972;7.640;2023-07-29T02:26:45;159.97;;;52.53;;
11835;SDS011;5977;51.972;7.640;2023-07-29T02:29:13;158.97;;;52.00;;
11835;SDS011;5977;51.972;7.640;2023-07-29T02:31:42;159.83;;;52.77;;
11835;SDS011;5977;51.972;7.640;2023-07-29T02:34:10;159.33;;;52.43;;
11835;SDS011;5977;51.972;7.640;2023-07-29T02:36:39;159.20;;;52.23;;
11835;SDS011;5977;51.972;7.640;2023-07-29T02:39:07;160.50;;;52.90;;
11835;SDS011;5977;51.972;7.640;2023-07-29T02:41:35;159.23;;;52.23;;
11835;SDS011;5977;51.972;7.640;2023-07-29T02:44:03;159.07;;;52.30;;
11835;SDS011;5977;51.972;7.640;2023-07-29T02:46:32;160.27;;;52.73;;
11835;SDS011;5977;51.972;7.640;2023-07-29T02:49:02;159.33;;;51.97;;
11835;SDS011;5977;51.972;7.640;2023-07-29T02:51:30;159.67;;;52.50;;
11835;SDS011;5977;51.972;7.640;2023-07-29T02:53:58;159.97;;;52.33;;
11835;SDS011;5977;51.972;7.640;2023-07-29T02:56:26;159.93;;;52.47;;
11835;SDS011;5977;51.972;7.640;2023-07-29T02:58:54;158.90;;;51.93;;
11835;SDS011;5977;51.972;7.640;2023-07-29T03:01:22;159.80;;;52.33;;
11835;SDS011;5977;51.972;7.640;2023-07-29T03:03:52;159.30;;;51.77;;
11835;SDS011;5977;51.972;7.640;2023-07-29T03:06:21;159.43;;;52.40;;
11835;SDS011;5977;51.972;7.640;2023-07-29T03:08:49;159.27;;;52.33;;
11835;SDS011;5977;51.972;7.640;2023-07-29T03:11:17;159.13;;;52.23;;
11835;SDS011;5977;51.972;7.640;2023-07-29T03:13:46;159.13;;;52.30;;
11835;SDS011;5977;51.972;7.640;2023-07-29T03:16:14;159.30;;;52.57;;
11835;SDS011;5977;51.972;7.640;2023-07-29T03:18:51;159.63;;;52.33;;
11835;SDS011;5977;51.972;7.640;2023-07-29T03:21:19;159.13;;;52.20;;
11835;SDS011;5977;51.972;7.640;2023-07-29T03:23:48;159.63;;;52.57;;
11835;SDS011;5977;51.972;7.640;2023-07-29T03:26:16;159.80;;;52.60;;
11835;SDS011;5977;51.972;7.640;2023-07-29T03:28:44;159.57;;;52.63;;
11835;SDS011;5977;51.972;7.640;2023-07-29T03:31:12;159.53;;;52.40;;
11835;SDS011;5977;51.972;7.640;2023-07-29T03:33:40;159.93;;;52.60;;
11835;SDS011;5977;51.972;7.640;2023-07-29T03:36:08;159.90;;;52.60;;
11835;SDS011;5977;51.972;7.640;2023-07-29T03:38:36;160.20;;;52.67;;
11835;SDS011;5977;51.972;7.640;2023-07-29T03:41:09;159.27;;;52.27;;
11835;SDS011;5977;51.972;7.640;2023-07-29T03:43:37;158.93;;;51.93;;
11835;SDS011;5977;51.972;7.640;2023-07-29T03:46:05;159.70;;;52.43;;
11835;SDS011;5977;51.972;7.640;2023-07-29T03:48:38;158.97;;;51.90;;
11835;SDS011;5977;51.972;7.640;2023-07-29T03:51:06;159.17;;;52.17;;
11835;SDS011;5977;51.972;7.640;2023-07-29T03:53:33;158.97;;;52.03;;
11835;SDS011;5977;51.972;7.640;2023-07-29T03:56:01;159.37;;;52.27;;
11835;SDS011;5977;51.972;7.640;2023-07-29T03:58:31;159.53;;;51.93;;
11835;SDS011;5977;51.972;7.640;2023-07-29T04:00:59;159.13;;;51.97;;
11835;SDS011;5977;51.972;7.640;2023-07-29T04:03:27;160.10;;;52.73;;
11835;SDS011;5977;51.972;7.640;2023-07-29T04:05:55;158.87;;;51.97;;
11835;SDS011;5977;51.972;7.640;2023-07-29T04:08:23;159.97;;;52.77;;
11835;SDS011;5977;51.972;7.640;2023-07-29T04:10:51;158.73;;;52.00;;
11835;SDS011;5977;51.972;7.640;2023-07-29T04:13:19;159.50;;;52.37;;
11835;SDS011;5977;51.972;7.640;2023-07-29T04:15:48;159.10;;;52.03;;
11835;SDS011;5977;51.972;7.640;2023-07-29T04:18:17;159.40;;;52.37;;
11835;SDS011;5977;51.972;7.640;2023-07-29T04:20:47;158.83;;;51.73;;
11835;SDS011;5977;51.972;7.640;2023-07-29T04:23:15;159.13;;;52.13;;
11835;SDS011;5977;51.972;7.640;2023-07-29T04:25:43;159.17;;;52.13;;
11835;SDS011;5977;51.972;7.640;2023-07-29T04:28:11;159.27;;;52.03;;
11835;SDS011;5977;51.972;7.640;2023-07-29T04:30:39;159.20;;;52.13;;
11835;SDS011;5977;51.972;7.640;2023-07-29T04:33:08;159.53;;;52.40;;
11835;SDS011;5977;51.972;7.640;2023-07-29T04:35:36;159.70;;;52.67;;
11835;SDS011;5977;51.972;7.640;2023-07-29T04:38:05;159.67;;;52.70;;
11835;SDS011;5977;51.972;7.640;2023-07-29T04:40:33;158.87;;;52.40;;
11835;SDS011;5977;51.972;7.640;2023-07-29T04:43:01;159.67;;;52.67;;
11835;SDS011;5977;51.972;7.640;2023-07-29T04:45:29;159.60;;;52.60;;
11835;SDS011;5977;51.972;7.640;2023-07-29T04:47:57;159.17;;;52.50;;
11835;SDS011;5977;51.972;7.640;2023-07-29T04:50:27;159.07;;;52.00;;
11835;SDS011;5977;51.972;7.640;2023-07-29T04:52:56;158.83;;;51.90;;
11835;SDS011;5977;51.972;7.640;2023-07-29T04:55:24;159.17;;;52.30;;
11835;SDS011;5977;51.972;7.640;2023-07-29T04:57:52;159.40;;;52.13;;
11835;SDS011;5977;51.972;7.640;2023-07-29T05:00:20;159.87;;;52.57;;
11835;SDS011;5977;51.972;7.640;2023-07-29T05:02:47;159.30;;;52.10;;
11835;SDS011;5977;51.972;7.640;2023-07-29T05:05:16;159.53;;;52.40;;
11835;SDS011;5977;51.972;7.640;2023-07-29T05:07:45;159.43;;;52.37;;
11835;SDS011;5977;51.972;7.640;2023-07-29T05:10:13;160.20;;;52.77;;
11835;SDS011;5977;51.972;7.640;2023-07-29T05:12:41;159.13;;;52.13;;
11835;SDS011;5977;51.972;7.640;2023-07-29T05:15:09;159.03;;;52.13;;
11835;SDS011;5977;51.972;7.640;2023-07-29T05:17:37;159.57;;;52.77;;
11835;SDS011;5977;51.972;7.640;2023-07-29T05:20:06;159.57;;;52.70;;
11835;SDS011;5977;51.972;7.640;2023-07-29T05:22:35;158.53;;;51.70;;
11835;SDS011;5977;51.972;7.640;2023-07-29T05:25:05;159.83;;;52.63;;
11835;SDS011;5977;51.972;7.640;2023-07-29T05:27:33;159.70;;;52.57;;
11835;SDS011;5977;51.972;7.640;2023-07-29T05:30:01;159.17;;;52.47;;
11835;SDS011;5977;51.972;7.640;2023-07-29T05:32:30;159.67;;;52.40;;
11835;SDS011;5977;51.972;7.640;2023-07-29T05:35:00;159.57;;;52.67;;
11835;SDS011;5977;51.972;7.640;2023-07-29T05:37:28;159.90;;;52.87;;
11835;SDS011;5977;51.972;7.640;2023-07-29T05:39:56;159.77;;;53.07;;
11835;SDS011;5977;51.972;7.640;2023-07-29T05:42:26;159.17;;;52.70;;
11835;SDS011;5977;51.972;7.640;2023-07-29T05:44:53;159.17;;;52.63;;
11835;SDS011;5977;51.972;7.640;2023-07-29T05:47:21;159.17;;;52.53;;
11835;SDS011;5977;51.972;7.640;2023-07-29T05:49:50;158.87;;;52.40;;
11835;SDS011;5977;51.972;7.640;2023-07-29T05:52:18;159.30;;;52.87;;
11835;SDS011;5977;51.972;7.640;2023-07-29T05:54:46;159.50;;;52.70;;
11835;SDS011;5977;51.972;7.640;2023-07-29T05:57:14;159.67;;;53.07;;
11835;SDS011;5977;51.972;7.640;2023-07-29T05:59:43;160.30;;;53.30;;
11835;SDS011;5977;51.972;7.640;2023-07-29T06:02:12;159.57;;;52.53;;
11835;SDS011;5977;51.972;7.640;2023-07-29T06:04:40;158.13;;;51.67;;
11835;SDS011;5977;51.972;7.640;2023-07-29T06:07:08;159.00;;;52.37;;
11835;SDS011;5977;51.972;7.640;2023-07-29T06:09:36;159.47;;;52.60;;
11835;SDS011;5977;51.972;7.640;2023-07-29T06:12:04;159.37;;;52.63;;
11835;SDS011;5977;51.972;7.640;2023-07-29T06:14:32;159.87;;;53.07;;
11835;SDS011;5977;51.972;7.640;2023-07-29T06:17:02;159.13;;;52.67;;
11835;SDS011;5977;51.972;7.640;2023-07-29T06:19:30;159.70;;;53.00;;
11835;SDS011;5977;51.972;7.640;2023-07-29T06:21:58;158.87;;;52.80;;
11835;SDS011;5977;51.972;7.640;2023-07-29T06:24:27;158.70;;;52.47;;
11835;SDS011;5977;51.972;7.640;2023-07-29T06:26:55;158.30;;;52.17;;
11835;SDS011;5977;51.972;7.640;2023-07-29T06:29:23;159.43;;;52.60;;
11835;SDS011;5977;51.972;7.640;2023-07-29T06:31:51;159.20;;;52.27;;
11835;SDS011;5977;51.972;7.640;2023-07-29T06:34:20;159.03;;;52.60;;
11835;SDS011;5977;51.972;7.640;2023-07-29T06:36:51;159.40;;;53.17;;
11835;SDS011;5977;51.972;7.640;2023-07-29T06:39:19;158.70;;;52.70;;
11835;SDS011;5977;51.972;7.640;2023-07-29T06:41:47;159.30;;;52.53;;
11835;SDS011;5977;51.972;7.640;2023-07-29T06:44:17;158.97;;;52.77;;
11835;SDS011;5977;51.972;7.640;2023-07-29T06:46:45;159.47;;;53.10;;
11835;SDS011;5977;51.972;7.640;2023-07-29T06:49:13;159.23;;;52.87;;
11835;SDS011;5977;51.972;7.640;2023-07-29T06:51:43;160.30;;;53.67;;
11835;SDS011;5977;51.972;7.640;2023-07-29T06:54:10;158.47;;;52.50;;
11835;SDS011;5977;51.972;7.640;2023-07-29T06:56:38;159.40;;;52.87;;
11835;SDS011;5977;51.972;7.640;2023-07-29T06:59:06;159.23;;;52.83;;
11835;SDS011;5977;51.972;7.640;2023-07-29T07:01:34;159.93;;;53.20;;
11835;SDS011;5977;51.972;7.640;2023-07-29T07:04:02;159.30;;;52.67;;
11835;SDS011;5977;51.972;7.640;2023-07-29T07:06:30;159.23;;;53.00;;
11835;SDS011;5977;51.972;7.640;2023-07-29T07:09:00;159.30;;;53.03;;
11835;SDS011;5977;51.972;7.640;2023-07-29T07:11:27;159.33;;;53.10;;
11835;SDS011;5977;51.972;7.640;2023-07-29T07:13:55;160.10;;;53.30;;
11835;SDS011;5977;51.972;7.640;2023-07-29T07:16:23;159.87;;;53.33;;
11835;SDS011;5977;51.972;7.640;2023-07-29T07:18:51;158.00;;;52.43;;
11835;SDS011;5977;51.972;7.640;2023-07-29T07:21:19;159.03;;;53.00;;
11835;SDS011;5977;51.972;7.640;2023-07-29T07:23:48;158.97;;;52.97;;
11835;SDS011;5977;51.972;7.640;2023-07-29T07:26:18;159.37;;;52.90;;
11835;SDS011;5977;51.972;7.640;2023-07-29T07:28:46;160.40;;;53.60;;
11835;SDS011;5977;51.972;7.640;2023-07-29T07:31:14;159.20;;;53.00;;
11835;SDS011;5977;51.972;7.640;2023-07-29T07:33:45;159.53;;;53.20;;
11835;SDS011;5977;51.972;7.640;2023-07-29T07:36:13;159.17;;;53.03;;
11835;SDS011;5977;51.972;7.640;2023-07-29T07:38:42;159.23;;;53.53;;
11835;SDS011;5977;51.972;7.640;2023-07-29T07:41:09;159.83;;;53.37;;
11835;SDS011;5977;51.972;7.640;2023-07-29T07:43:39;159.70;;;53.33;;
11835;SDS011;5977;51.972;7.640;2023-07-29T07:46:07;159.13;;;53.10;;
11835;SDS011;5977;51.972;7.640;2023-07-29T07:48:35;159.53;;;53.30;;
11835;SDS011;5977;51.972;7.640;2023-07-29T07:51:09;159.67;;;53.27;;
11835;SDS011;5977;51.972;7.640;2023-07-29T07:53:38;159.87;;;53.67;;
11835;SDS011;5977;51.972;7.640;2023-07-29T07:56:06;158.93;;;53.17;;
11835;SDS011;5977;51.972;7.640;2023-07-29T07:58:34;159.40;;;53.27;;
11835;SDS011;5977;51.972;7.640;2023-07-29T08:01:04;159.53;;;53.17;;
11835;SDS011;5977;51.972;7.640;2023-07-29T08:03:32;159.90;;;53.77;;
11835;SDS011;5977;51.972;7.640;2023-07-29T08:06:00;159.90;;;53.70;;
11835;SDS011;5977;51.972;7.640;2023-07-29T08:08:29;159.50;;;53.17;;
11835;SDS011;5977;51.972;7.640;2023-07-29T08:10:57;160.20;;;53.47;;
11835;SDS011;5977;51.972;7.640;2023-07-29T08:13:25;158.93;;;53.00;;
11835;SDS011;5977;51.972;7.640;2023-07-29T08:15:53;159.50;;;53.50;;
11835;SDS011;5977;51.972;7.640;2023-07-29T08:18:22;159.40;;;53.70;;
11835;SDS011;5977;51.972;7.640;2023-07-29T08:20:53;158.97;;;53.53;;
11835;SDS011;5977;51.972;7.640;2023-07-29T08:23:24;159.57;;;54.03;;
11835;SDS011;5977;51.972;7.640;2023-07-29T08:25:52;159.70;;;54.47;;
11835;SDS011;5977;51.972;7.640;2023-07-29T08:28:22;159.50;;;54.23;;
11835;SDS011;5977;51.972;7.640;2023-07-29T08:30:50;159.10;;;54.10;;
11835;SDS011;5977;51.972;7.640;2023-07-29T08:33:18;158.77;;;54.03;;
11835;SDS011;5977;51.972;7.640;2023-07-29T08:35:48;159.90;;;55.20;;
11835;SDS011;5977;51.972;7.640;2023-07-29T08:38:16;159.30;;;54.70;;
11835;SDS011;5977;51.972;7.640;2023-07-29T08:40:45;160.17;;;55.07;;
11835;SDS011;5977;51.972;7.640;2023-07-29T08:43:17;160.23;;;54.97;;
11835;SDS011;5977;51.972;7.640;2023-07-29T08:45:47;159.63;;;54.60;;
11835;SDS011;5977;51.972;7.640;2023-07-29T08:48:15;160.17;;;54.80;;
11835;SDS011;5977;51.972;7.640;2023-07-29T08:50:52;159.80;;;54.27;;
11835;SDS011;5977;51.972;7.640;2023-07-29T08:53:20;159.07;;;53.97;;
11835;SDS011;5977;51.972;7.640;2023-07-29T08:55:49;159.53;;;54.83;;
11835;SDS011;5977;51.972;7.640;2023-07-29T08:58:17;159.93;;;55.30;;
11835;SDS011;5977;51.972;7.640;2023-07-29T09:00:45;160.17;;;55.40;;
11835;SDS011;5977;51.972;7.640;2023-07-29T09:03:15;160.10;;;55.27;;
11835;SDS011;5977;51.972;7.640;2023-07-29T09:05:43;159.73;;;55.40;;
11835;SDS011;5977;51.972;7.640;2023-07-29T09:08:12;160.70;;;56.00;;
11835;SDS011;5977;51.972;7.640;2023-07-29T09:10:41;160.23;;;55.37;;
11835;SDS011;5977;51.972;7.640;2023-07-29T09:13:09;160.03;;;55.67;;
11835;SDS011;5977;51.972;7.640;2023-07-29T09:15:36;160.23;;;55.80;;
11835;SDS011;5977;51.972;7.640;2023-07-29T09:18:08;160.00;;;55.77;;
11835;SDS011;5977;51.972;7.640;2023-07-29T09:20:39;160.27;;;55.80;;
11835;SDS011;5977;51.972;7.640;2023-07-29T09:23:08;161.07;;;55.77;;
11835;SDS011;5977;51.972;7.640;2023-07-29T09:25:39;160.23;;;55.37;;
11835;SDS011;5977;51.972;7.640;2023-07-29T09:28:08;160.30;;;55.77;;
11835;SDS011;5977;51.972;7.640;2023-07-29T09:30:37;159.90;;;54.97;;
11835;SDS011;5977;51.972;7.640;2023-07-29T09:33:06;160.30;;;54.67;;
11835;SDS011;5977;51.972;7.640;2023-07-29T09:35:35;160.67;;;55.77;;
11835;SDS011;5977;51.972;7.640;2023-07-29T09:38:04;160.50;;;55.27;;
11835;SDS011;5977;51.972;7.640;2023-07-29T09:40:36;160.63;;;55.60;;
11835;SDS011;5977;51.972;7.640;2023-07-29T09:43:07;160.13;;;54.93;;
11835;SDS011;5977;51.972;7.640;2023-07-29T09:45:37;160.83;;;55.57;;
11835;SDS011;5977;51.972;7.640;2023-07-29T09:48:05;160.03;;;54.93;;
11835;SDS011;5977;51.972;7.640;2023-07-29T09:50:36;160.67;;;54.80;;
11835;SDS011;5977;51.972;7.640;2023-07-29T09:53:04;160.20;;;55.33;;
11835;SDS011;5977;51.972;7.640;2023-07-29T09:55:34;159.87;;;54.90;;
11835;SDS011;5977;51.972;7.640;2023-07-29T09:58:04;160.57;;;55.40;;
11835;SDS011;5977;51.972;7.640;2023-07-29T10:00:34;160.53;;;55.50;;
11835;SDS011;5977;51.972;7.640;2023-07-29T10:03:04;160.67;;;55.43;;
11835;SDS011;5977;51.972;7.640;2023-07-29T10:05:33;160.33;;;55.00;;
11835;SDS011;5977;51.972;7.640;2023-07-29T10:08:02;160.60;;;55.13;;
11835;SDS011;5977;51.972;7.640;2023-07-29T10:10:31;160.93;;;55.67;;
11835;SDS011;5977;51.972;7.640;2023-07-29T10:12:59;160.13;;;55.03;;
11835;SDS011;5977;51.972;7.640;2023-07-29T10:15:30;160.53;;;54.90;;
11835;SDS011;5977;51.972;7.640;2023-07-29T10:17:59;159.93;;;54.67;;
11835;SDS011;5977;51.972;7.640;2023-07-29T10:20:29;159.80;;;54.70;;
11835;SDS011;5977;51.972;7.640;2023-07-29T10:22:59;160.10;;;54.73;;
11835;SDS011;5977;51.972;7.640;2023-07-29T10:25:30;159.37;;;54.13;;
11835;SDS011;5977;51.972;7.640;2023-07-29T10:28:05;159.93;;;54.57;;
11835;SDS011;5977;51.972;7.640;2023-07-29T10:30:36;160.10;;;54.40;;
11835;SDS011;5977;51.972;7.640;2023-07-29T10:33:05;160.17;;;54.37;;
11835;SDS011;5977;51.972;7.640;2023-07-29T10:35:33;159.97;;;54.30;;
11835;SDS011;5977;51.972;7.640;2023-07-29T10:38:02;160.20;;;54.70;;
11835;SDS011;5977;51.972;7.640;2023-07-29T10:40:43;160.37;;;54.50;;
11835;SDS011;5977;51.972;7.640;2023-07-29T10:43:12;160.73;;;54.93;;
11835;SDS011;5977;51.972;7.640;2023-07-29T10:45:47;160.83;;;54.83;;
11835;SDS011;5977;51.972;7.640;2023-07-29T10:48:40;159.30;;;54.00;;
11835;SDS011;5977;51.972;7.640;2023-07-29T10:51:30;159.90;;;54.47;;
11835;SDS011;5977;51.972;7.640;2023-07-29T10:54:03;160.60;;;54.80;;
11835;SDS011;5977;51.972;7.640;2023-07-29T10:56:36;159.93;;;54.40;;
11835;SDS011;5977;51.972;7.640;2023-07-29T10:59:22;160.50;;;54.70;;
11835;SDS011;5977;51.972;7.640;2023-07-29T11:02:01;160.60;;;55.10;;
11835;SDS011;5977;51.972;7.640;2023-07-29T11:04:29;159.87;;;54.70;;
11835;SDS011;5977;51.972;7.640;2023-07-29T11:09:56;160.10;;;54.40;;
11835;SDS011;5977;51.972;7.640;2023-07-29T11:12:38;160.00;;;54.50;;
11835;SDS011;5977;51.972;7.640;2023-07-29T11:15:13;160.30;;;54.93;;
11835;SDS011;5977;51.972;7.640;2023-07-29T11:17:45;160.03;;;54.70;;
11835;SDS011;5977;51.972;7.640;2023-07-29T11:20:14;160.20;;;54.73;;
11835;SDS011;5977;51.972;7.640;2023-07-29T11:22:43;160.40;;;55.07;;
11835;SDS011;5977;51.972;7.640;2023-07-29T11:25:13;160.17;;;54.53;;
11835;SDS011;5977;51.972;7.640;2023-07-29T11:27:42;160.30;;;54.80;;
11835;SDS011;5977;51.972;7.640;2023-07-29T11:30:11;160.20;;;54.77;;
11835;SDS011;5977;51.972;7.640;2023-07-29T11:32:40;160.30;;;54.67;;
11835;SDS011;5977;51.972;7.640;2023-07-29T11:35:11;160.20;;;54.83;;
11835;SDS011;5977;51.972;7.640;2023-07-29T11:37:41;160.47;;;54.73;;
11835;SDS011;5977;51.972;7.640;2023-07-29T11:40:13;160.40;;;55.20;;
11835;SDS011;5977;51.972;7.640;2023-07-29T11:42:41;159.60;;;54.27;;
11835;SDS011;5977;51.972;7.640;2023-07-29T11:45:10;160.77;;;54.90;;
11835;SDS011;5977;51.972;7.640;2023-07-29T11:47:40;160.53;;;54.63;;
11835;SDS011;5977;51.972;7.640;2023-07-29T11:50:09;160.27;;;55.07;;
11835;SDS011;5977;51.972;7.640;2023-07-29T11:52:40;160.13;;;54.47;;
11835;SDS011;5977;51.972;7.640;2023-07-29T11:55:09;160.07;;;54.80;;
11835;SDS011;5977;51.972;7.640;2023-07-29T11:57:39;160.60;;;54.87;;
11835;SDS011;5977;51.972;7.640;2023-07-29T12:00:09;159.70;;;54.37;;
11835;SDS011;5977;51.972;7.640;2023-07-29T12:02:39;160.30;;;54.90;;
11835;SDS011;5977;51.972;7.640;2023-07-29T12:05:12;159.80;;;54.60;;
11835;SDS011;5977;51.972;7.640;2023-07-29T12:07:42;160.27;;;54.57;;
11835;SDS011;5977;51.972;7.640;2023-07-29T12:10:11;160.37;;;55.20;;
11835;SDS011;5977;51.972;7.640;2023-07-29T12:12:49;160.57;;;54.87;;
11835;SDS011;5977;51.972;7.640;2023-07-29T12:15:27;159.50;;;54.30;;
11835;SDS011;5977;51.972;7.640;2023-07-29T12:17:56;159.80;;;54.27;;
11835;SDS011;5977;51.972;7.640;2023-07-29T12:20:29;159.50;;;54.23;;
11835;SDS011;5977;51.972;7.640;2023-07-29T12:22:58;160.67;;;55.07;;
11835;SDS011;5977;51.972;7.640;2023-07-29T12:25:28;159.33;;;53.93;;
11835;SDS011;5977;51.972;7.640;2023-07-29T12:28:01;159.70;;;54.57;;
11835;SDS011;5977;51.972;7.640;2023-07-29T12:30:30;160.53;;;54.97;;
11835;SDS011;5977;51.972;7.640;2023-07-29T12:32:58;159.67;;;54.53;;
11835;SDS011;5977;51.972;7.640;2023-07-29T12:35:34;159.83;;;54.93;;
11835;SDS011;5977;51.972;7.640;2023-07-29T12:38:04;159.97;;;54.43;;
11835;SDS011;5977;51.972;7.640;2023-07-29T12:40:37;160.10;;;54.67;;
11835;SDS011;5977;51.972;7.640;2023-07-29T12:43:05;160.43;;;55.10;;
11835;SDS011;5977;51.972;7.640;2023-07-29T12:45:35;160.33;;;54.93;;
11835;SDS011;5977;51.972;7.640;2023-07-29T12:48:06;159.83;;;54.30;;
11835;SDS011;5977;51.972;7.640;2023-07-29T12:50:35;160.13;;;54.63;;
11835;SDS011;5977;51.972;7.640;2023-07-29T12:53:04;159.97;;;54.90;;
11835;SDS011;5977;51.972;7.640;2023-07-29T12:55:32;160.37;;;54.80;;
11835;SDS011;5977;51.972;7.640;2023-07-29T12:58:00;159.97;;;54.53;;
11835;SDS011;5977;51.972;7.640;2023-07-29T13:00:29;160.20;;;54.87;;
11835;SDS011;5977;51.972;7.640;2023-07-29T13:02:58;160.63;;;54.93;;
11835;SDS011;5977;51.972;7.640;2023-07-29T13:05:26;160.13;;;54.53;;
11835;SDS011;5977;51.972;7.640;2023-07-29T13:07:56;160.07;;;54.83;;
11835;SDS011;5977;51.972;7.640;2023-07-29T13:10:24;160.43;;;54.90;;
11835;SDS011;5977;51.972;7.640;2023-07-29T13:12:51;160.40;;;55.00;;
11835;SDS011;5977;51.972;7.640;2023-07-29T13:15:21;159.47;;;54.30;;
11835;SDS011;5977;51.972;7.640;2023-07-29T13:17:49;160.20;;;54.80;;
11835;SDS011;5977;51.972;7.640;2023-07-29T13:20:17;160.10;;;54.83;;
11835;SDS011;5977;51.972;7.640;2023-07-29T13:22:46;159.93;;;54.97;;
11835;SDS011;5977;51.972;7.640;2023-07-29T13:25:15;159.80;;;54.60;;
11835;SDS011;5977;51.972;7.640;2023-07-29T13:27:43;160.13;;;54.73;;
11835;SDS011;5977;51.972;7.640;2023-07-29T13:30:11;160.53;;;55.00;;
11835;SDS011;5977;51.972;7.640;2023-07-29T13:32:39;160.23;;;54.87;;
11835;SDS011;5977;51.972;7.640;2023-07-29T13:35:07;160.60;;;55.03;;
11835;SDS011;5977;51.972;7.640;2023-07-29T13:37:36;160.90;;;55.60;;
11835;SDS011;5977;51.972;7.640;2023-07-29T13:40:04;160.23;;;55.07;;
11835;SDS011;5977;51.972;7.640;2023-07-29T13:42:34;160.43;;;55.10;;
11835;SDS011;5977;51.972;7.640;2023-07-29T13:45:02;159.83;;;54.80;;
11835;SDS011;5977;51.972;7.640;2023-07-29T13:47:31;160.00;;;54.93;;
11835;SDS011;5977;51.972;7.640;2023-07-29T13:49:59;160.13;;;54.60;;
11835;SDS011;5977;51.972;7.640;2023-07-29T13:52:27;159.93;;;54.70;;
11835;SDS011;5977;51.972;7.640;2023-07-29T13:54:55;160.37;;;55.10;;
11835;SDS011;5977;51.972;7.640;2023-07-29T13:57:23;159.43;;;54.30;;
11835;SDS011;5977;51.972;7.640;2023-07-29T13:59:52;160.10;;;55.00;;
11835;SDS011;5977;51.972;7.640;2023-07-29T14:02:20;159.80;;;54.50;;
11835;SDS011;5977;51.972;7.640;2023-07-29T14:04:48;160.10;;;54.83;;
11835;SDS011;5977;51.972;7.640;2023-07-29T14:07:16;160.13;;;54.50;;
11835;SDS011;5977;51.972;7.640;2023-07-29T14:09:44;160.87;;;54.83;;
11835;SDS011;5977;51.972;7.640;2023-07-29T14:12:12;159.83;;;54.70;;
11835;SDS011;5977;51.972;7.640;2023-07-29T14:14:41;159.40;;;54.47;;
11835;SDS011;5977;51.972;7.640;2023-07-29T14:17:11;160.20;;;54.50;;
11835;SDS011;5977;51.972;7.640;2023-07-29T14:19:39;159.63;;;54.20;;
11835;SDS011;5977;51.972;7.640;2023-07-29T14:22:07;159.53;;;54.27;;
11835;SDS011;5977;51.972;7.640;2023-07-29T14:24:34;159.93;;;54.33;;
11835;SDS011;5977;51.972;7.640;2023-07-29T14:27:03;160.73;;;54.93;;
11835;SDS011;5977;51.972;7.640;2023-07-29T14:29:31;160.60;;;54.80;;
11835;SDS011;5977;51.972;7.640;2023-07-29T14:31:59;159.90;;;54.37;;
11835;SDS011;5977;51.972;7.640;2023-07-29T14:34:28;160.30;;;54.53;;
11835;SDS011;5977;51.972;7.640;2023-07-29T14:36:56;160.63;;;54.77;;